createdAt,value
2023-02-14T00:00:32.489Z,3.55
2023-02-14T00:03:02.795Z,3.40
2023-02-14T00:05:32.884Z,3.70
2023-02-14T00:08:02.965Z,3.30
2023-02-14T00:10:32.965Z,3.63
2023-02-14T00:13:02.932Z,3.25
2023-02-14T00:15:32.991Z,3.40
2023-02-14T00:18:04.241Z,3.97
2023-02-14T00:20:34.827Z,3.58
2023-02-14T00:23:05.053Z,3.05
2023-02-14T00:25:38.111Z,3.78
2023-02-14T00:28:08.606Z,3.40
2023-02-14T00:30:38.777Z,3.55
2023-02-14T00:33:08.876Z,3.83
2023-02-14T00:35:40.874Z,3.38
2023-02-14T00:38:10.897Z,3.40
2023-02-14T00:40:42.330Z,3.55
2023-02-14T00:43:12.334Z,3.40
2023-02-14T00:45:42.445Z,3.45
2023-02-14T00:48:14.290Z,3.47
2023-02-14T00:51:03.749Z,3.97
2023-02-14T00:53:33.831Z,3.40
2023-02-14T00:58:33.814Z,2.92
2023-02-14T01:01:04.867Z,2.97
2023-02-14T01:03:35.581Z,3.67
2023-02-14T01:06:06.266Z,3.58
2023-02-14T01:08:36.573Z,3.30
2023-02-14T01:11:11.905Z,3.40
2023-02-14T01:13:42.518Z,3.55
2023-02-14T01:16:15.919Z,3.45
2023-02-14T01:18:46.613Z,3.35
2023-02-14T01:21:22.556Z,3.15
2023-02-14T01:23:55.090Z,2.78
2023-02-14T01:26:26.221Z,3.72
2023-02-14T01:28:56.966Z,3.40
2023-02-14T01:31:30.147Z,3.17
2023-02-14T01:34:01.473Z,2.97
2023-02-14T01:36:39.370Z,3.53
2023-02-14T01:39:14.722Z,3.05
2023-02-14T01:41:52.237Z,3.58
2023-02-14T01:44:28.538Z,3.50
2023-02-14T01:46:59.850Z,3.85
2023-02-14T01:49:37.201Z,3.33
2023-02-14T01:52:25.256Z,3.50
2023-02-14T01:55:02.277Z,4.57
2023-02-14T01:57:41.749Z,4.55
2023-02-14T02:00:30.773Z,4.68
2023-02-14T02:03:05.595Z,5.22
2023-02-14T02:05:39.423Z,4.53
2023-02-14T02:08:09.691Z,4.95
2023-02-14T02:10:39.713Z,4.80
2023-02-14T02:16:04.678Z,4.82
2023-02-14T02:19:05.320Z,5.00
2023-02-14T02:21:53.258Z,5.25
2023-02-14T02:24:48.128Z,5.20
2023-02-14T02:27:45.394Z,4.80
2023-02-14T02:31:11.381Z,3.88
2023-02-14T02:33:58.242Z,3.85
2023-02-14T02:36:45.496Z,3.67
2023-02-14T02:39:52.008Z,4.30
2023-02-14T02:42:31.830Z,3.97
2023-02-14T02:45:18.591Z,3.95
2023-02-14T02:48:19.636Z,4.35
2023-02-14T02:51:13.573Z,3.58
2023-02-14T02:53:53.472Z,3.60
2023-02-14T02:56:48.658Z,3.80
2023-02-14T02:59:36.413Z,3.90
2023-02-14T03:02:27.969Z,3.65
2023-02-14T03:05:01.601Z,3.75
2023-02-14T03:07:43.151Z,3.90
2023-02-14T03:10:24.941Z,4.03
2023-02-14T03:13:14.243Z,3.90
2023-02-14T03:15:59.038Z,3.70
2023-02-14T03:18:47.530Z,3.42
2023-02-14T03:21:32.820Z,3.78
2023-02-14T03:24:15.101Z,3.63
2023-02-14T03:26:49.174Z,3.03
2023-02-14T03:29:47.464Z,3.50
2023-02-14T03:32:40.548Z,3.42
2023-02-14T03:35:17.306Z,2.75
2023-02-14T03:38:12.734Z,3.63
2023-02-14T03:40:42.785Z,2.88
2023-02-14T03:43:28.272Z,3.20
2023-02-14T03:46:25.788Z,2.92
2023-02-14T03:48:58.863Z,2.88
2023-02-14T03:51:35.384Z,2.50
2023-02-14T03:54:10.523Z,2.90
2023-02-14T03:57:21.530Z,2.85
2023-02-14T03:59:52.073Z,3.70
2023-02-14T04:02:25.448Z,4.45
2023-02-14T04:04:57.674Z,3.70
2023-02-14T04:07:28.138Z,4.30
2023-02-14T04:09:58.181Z,3.60
2023-02-14T04:12:37.519Z,3.95
2023-02-14T04:15:28.004Z,3.63
2023-02-14T04:20:46.174Z,3.42
2023-02-14T04:23:16.249Z,4.35
2023-02-14T04:25:46.865Z,4.35
2023-02-14T04:28:17.335Z,4.35
2023-02-14T04:33:16.604Z,5.05
2023-02-14T04:35:46.517Z,5.80
2023-02-14T04:38:16.491Z,5.85
2023-02-14T04:43:16.322Z,6.22
2023-02-14T04:45:46.332Z,4.88
2023-02-14T04:50:45.581Z,4.70
2023-02-14T04:53:15.333Z,4.82
2023-02-14T04:55:46.080Z,3.80
2023-02-14T04:58:16.098Z,3.83
2023-02-14T05:00:46.051Z,4.05
2023-02-14T05:03:16.316Z,4.00
2023-02-14T05:05:46.327Z,3.50
2023-02-14T05:10:46.961Z,3.58
2023-02-14T05:15:48.521Z,3.10
2023-02-14T05:18:18.744Z,3.13
2023-02-14T05:20:52.407Z,2.30
2023-02-14T05:23:23.497Z,3.05
2023-02-14T05:25:54.193Z,2.72
2023-02-14T05:28:24.177Z,3.00
2023-02-14T05:33:24.322Z,3.00
2023-02-14T05:35:54.334Z,3.00
2023-02-14T05:40:53.581Z,2.88
2023-02-14T05:43:23.394Z,2.65
2023-02-14T05:45:53.646Z,2.90
2023-02-14T05:48:24.103Z,2.90
2023-02-14T05:50:54.619Z,2.42
2023-02-14T05:53:25.172Z,2.83
2023-02-14T05:58:24.275Z,2.58
2023-02-14T06:00:54.590Z,2.50
2023-02-14T06:03:24.676Z,2.38
2023-02-14T06:05:54.522Z,2.65
2023-02-14T06:08:24.809Z,2.40
2023-02-14T06:10:54.862Z,2.33
2023-02-14T06:13:26.001Z,2.53
2023-02-14T06:15:56.033Z,2.58
2023-02-14T06:20:59.466Z,2.30
2023-02-14T06:23:29.579Z,2.47
2023-02-14T06:25:59.574Z,2.33
2023-02-14T06:28:29.577Z,2.15
2023-02-14T06:30:59.768Z,2.15
2023-02-14T06:33:30.187Z,2.80
2023-02-14T06:36:00.307Z,2.70
2023-02-14T06:38:30.307Z,2.75
2023-02-14T06:43:35.203Z,2.53
2023-02-14T06:46:05.710Z,2.03
2023-02-14T06:48:35.706Z,2.28
2023-02-14T06:51:05.881Z,2.42
2023-02-14T06:53:37.510Z,2.47
2023-02-14T06:56:08.118Z,2.42
2023-02-14T06:58:38.158Z,2.40
2023-02-14T07:03:37.881Z,2.22
2023-02-14T07:08:37.392Z,2.10
2023-02-14T07:13:36.881Z,2.10
2023-02-14T07:18:36.482Z,2.40
2023-02-14T07:21:06.649Z,1.90
2023-02-14T07:23:37.137Z,2.17
2023-02-14T07:26:07.274Z,2.53
2023-02-14T07:28:37.340Z,2.42
2023-02-14T07:33:37.109Z,2.67
2023-02-14T07:38:38.876Z,2.15
2023-02-14T07:41:08.673Z,2.40
2023-02-14T07:43:38.593Z,3.17
2023-02-14T07:46:09.742Z,2.20
2023-02-14T07:48:40.435Z,2.65
2023-02-14T07:51:11.172Z,2.35
2023-02-14T07:53:42.243Z,2.05
2023-02-14T07:56:12.218Z,1.80
2023-02-14T08:01:11.462Z,1.80
2023-02-14T08:06:11.507Z,1.90
2023-02-14T08:08:41.563Z,1.83
2023-02-14T08:13:40.923Z,1.70
2023-02-14T08:16:12.825Z,2.13
2023-02-14T08:18:43.853Z,1.85
2023-02-14T08:21:13.895Z,2.63
2023-02-14T08:26:13.037Z,2.28
2023-02-14T08:31:12.781Z,1.90
2023-02-14T08:33:44.499Z,2.22
2023-02-14T08:36:14.479Z,2.08
2023-02-14T08:38:46.203Z,2.33
2023-02-14T08:41:19.815Z,1.85
2023-02-14T08:43:49.892Z,2.30
2023-02-14T08:46:19.915Z,2.25
2023-02-14T08:51:22.024Z,1.40
2023-02-14T08:53:53.265Z,1.85
2023-02-14T08:56:23.870Z,1.60
2023-02-14T08:58:55.935Z,1.10
2023-02-14T09:01:30.327Z,1.30
2023-02-14T09:04:01.207Z,1.25
2023-02-14T09:06:31.664Z,1.15
2023-02-14T09:09:02.699Z,1.00
2023-02-14T09:11:32.917Z,1.17
2023-02-14T09:14:02.931Z,1.27
2023-02-14T09:19:02.304Z,1.10
2023-02-14T09:24:01.742Z,1.13
2023-02-14T09:26:31.790Z,1.23
2023-02-14T09:29:01.629Z,1.77
2023-02-14T09:31:31.934Z,1.33
2023-02-14T09:34:02.064Z,1.10
2023-02-14T09:39:01.462Z,1.10
2023-02-14T09:41:31.478Z,1.15
2023-02-14T09:46:47.061Z,1.23
2023-02-14T09:49:20.635Z,1.85
2023-02-14T09:51:54.765Z,1.42
2023-02-14T09:54:30.971Z,1.25
2023-02-14T09:59:54.367Z,1.10
2023-02-14T10:02:45.230Z,1.52
2023-02-14T10:05:26.496Z,1.73
2023-02-14T10:08:53.452Z,1.75
2023-02-14T10:11:28.809Z,1.50
2023-02-14T10:14:06.371Z,1.50
2023-02-14T10:16:46.631Z,1.50
2023-02-14T10:19:28.747Z,1.60
2023-02-14T10:22:08.178Z,1.52
2023-02-14T10:24:57.446Z,1.77
2023-02-14T10:27:40.687Z,1.60
2023-02-14T10:30:19.468Z,1.30
2023-02-14T10:32:50.611Z,1.73
2023-02-14T10:35:48.102Z,2.00
2023-02-14T10:38:42.536Z,1.60
2023-02-14T10:41:29.860Z,1.48
2023-02-14T10:44:09.014Z,1.75
2023-02-14T10:47:07.659Z,1.80
2023-02-14T10:49:53.888Z,1.52
2023-02-14T10:52:41.080Z,1.98
2023-02-14T10:55:32.033Z,1.77
2023-02-14T10:58:26.737Z,1.70
2023-02-14T11:01:21.244Z,1.60
2023-02-14T11:04:05.122Z,1.30
2023-02-14T11:06:36.302Z,1.33
2023-02-14T11:09:06.541Z,1.42
2023-02-14T11:11:43.266Z,1.48
2023-02-14T11:14:31.065Z,1.60
2023-02-14T11:17:02.351Z,1.65
2023-02-14T11:19:37.326Z,1.45
2023-02-14T11:22:11.215Z,1.42
2023-02-14T11:24:47.085Z,2.05
2023-02-14T11:27:20.652Z,2.10
2023-02-14T11:29:53.520Z,1.42
2023-02-14T11:32:27.423Z,1.70
2023-02-14T11:35:08.220Z,1.55
2023-02-14T11:37:45.245Z,1.55
2023-02-14T11:40:38.089Z,1.45
2023-02-14T11:43:16.382Z,1.08
2023-02-14T11:45:48.803Z,1.35
2023-02-14T11:48:37.183Z,1.20
2023-02-14T11:51:16.808Z,1.15
2023-02-14T11:53:49.810Z,1.52
2023-02-14T11:56:22.212Z,1.30
2023-02-14T11:58:58.353Z,1.08
2023-02-14T12:04:06.284Z,1.05
2023-02-14T12:06:37.924Z,1.25
2023-02-14T12:09:23.557Z,1.58
2023-02-14T12:12:05.755Z,1.10
2023-02-14T12:14:37.377Z,1.40
2023-02-14T12:17:14.380Z,1.10
2023-02-14T12:19:56.011Z,1.17
2023-02-14T12:22:34.949Z,12.05
2023-02-14T12:25:28.473Z,1.88
2023-02-14T12:28:05.337Z,1.50
2023-02-14T12:30:36.655Z,1.13
2023-02-14T12:33:21.630Z,1.20
2023-02-14T12:36:21.276Z,1.10
2023-02-14T12:39:28.179Z,1.30
2023-02-14T12:42:19.046Z,1.42
2023-02-14T12:45:25.031Z,1.20
2023-02-14T12:48:17.014Z,1.52
2023-02-14T12:50:59.783Z,1.70
2023-02-14T12:53:53.691Z,1.10
2023-02-14T12:56:32.724Z,1.27
2023-02-14T12:59:17.944Z,1.02
2023-02-14T13:02:02.957Z,1.08
2023-02-14T13:04:41.428Z,1.15
2023-02-14T13:07:39.233Z,1.15
2023-02-14T13:10:46.030Z,1.17
2023-02-14T13:13:49.149Z,1.20
2023-02-14T13:16:37.386Z,1.10
2023-02-14T13:19:32.067Z,1.17
2023-02-14T13:22:05.416Z,1.23
2023-02-14T13:24:44.206Z,1.10
2023-02-14T13:27:26.014Z,0.82
2023-02-14T13:30:10.042Z,0.80
2023-02-14T13:32:47.441Z,1.02
2023-02-14T13:35:21.078Z,1.20
2023-02-14T13:37:58.850Z,0.80
2023-02-14T13:40:30.821Z,0.80
2023-02-14T13:43:02.936Z,0.73
2023-02-14T13:45:41.964Z,0.80
2023-02-14T13:48:24.345Z,0.70
2023-02-14T13:51:06.692Z,0.50
2023-02-14T13:53:46.880Z,0.60
2023-02-14T13:56:16.900Z,0.55
2023-02-14T13:59:02.208Z,0.77
2023-02-14T14:01:38.220Z,0.50
2023-02-14T14:07:04.601Z,0.90
2023-02-14T14:09:43.909Z,0.80
2023-02-14T14:12:29.174Z,0.88
2023-02-14T14:15:08.123Z,0.55
2023-02-14T14:17:40.844Z,0.88
2023-02-14T14:20:22.447Z,0.70
2023-02-14T14:23:01.829Z,0.70
2023-02-14T14:25:40.695Z,0.70
2023-02-14T14:28:20.852Z,0.50
2023-02-14T14:30:51.179Z,0.60
2023-02-14T14:33:29.393Z,0.57
2023-02-14T14:36:08.665Z,0.60
2023-02-14T14:38:50.488Z,0.63
2023-02-14T14:41:20.645Z,0.65
2023-02-14T14:43:51.725Z,0.68
2023-02-14T14:46:21.756Z,0.60
2023-02-14T14:48:56.061Z,0.73
2023-02-14T14:51:32.372Z,0.80
2023-02-14T14:54:05.867Z,0.60
2023-02-14T14:57:02.719Z,1.02
2023-02-14T14:59:42.056Z,0.80
2023-02-14T15:02:29.056Z,0.80
2023-02-14T15:04:59.111Z,0.60
2023-02-14T15:07:37.559Z,0.70
2023-02-14T15:10:24.518Z,0.70
2023-02-14T15:13:15.250Z,0.57
2023-02-14T15:15:52.179Z,0.52
2023-02-14T15:18:23.309Z,0.60
2023-02-14T15:20:54.718Z,0.50
2023-02-14T15:23:26.361Z,0.60
2023-02-14T15:25:56.692Z,0.60
2023-02-14T15:28:35.393Z,0.40
2023-02-14T15:31:08.385Z,0.70
2023-02-14T15:33:38.848Z,0.75
2023-02-14T15:36:16.799Z,0.98
2023-02-14T15:38:47.763Z,0.57
2023-02-14T15:41:19.077Z,0.80
2023-02-14T15:43:57.627Z,0.80
2023-02-14T15:46:37.184Z,0.80
2023-02-14T15:49:11.934Z,0.70
2023-02-14T15:51:44.298Z,0.90
2023-02-14T15:54:39.567Z,0.55
2023-02-14T15:57:25.196Z,0.77
2023-02-14T15:59:56.187Z,0.70
2023-02-14T16:02:39.854Z,0.95
2023-02-14T16:05:25.058Z,0.88
2023-02-14T16:08:37.359Z,0.82
2023-02-14T16:11:28.824Z,0.65
2023-02-14T16:13:59.341Z,0.88
2023-02-14T16:16:58.671Z,0.82
2023-02-14T16:19:40.789Z,0.85
2023-02-14T16:22:25.821Z,0.52
2023-02-14T16:24:55.836Z,0.73
2023-02-14T16:27:25.698Z,0.77
2023-02-14T16:29:55.527Z,0.80
2023-02-14T16:32:26.480Z,0.70
2023-02-14T16:34:56.686Z,0.70
2023-02-14T16:37:32.720Z,0.60
2023-02-14T16:40:03.781Z,0.98
2023-02-14T16:42:33.928Z,0.50
2023-02-14T16:45:03.952Z,0.85
2023-02-14T16:47:34.112Z,1.13
2023-02-14T16:50:08.383Z,0.70
2023-02-14T16:52:39.950Z,0.80
2023-02-14T16:55:17.561Z,0.52
2023-02-14T16:57:49.594Z,0.70
2023-02-14T17:00:20.038Z,0.60
2023-02-14T17:02:50.711Z,0.90
2023-02-14T17:05:20.993Z,0.82
2023-02-14T17:07:50.991Z,0.82
2023-02-14T17:10:22.028Z,0.63
2023-02-14T17:12:53.034Z,1.15
2023-02-14T17:15:26.060Z,0.70
2023-02-14T17:18:11.207Z,0.95
2023-02-14T17:20:41.643Z,0.70
2023-02-14T17:23:11.718Z,0.60
2023-02-14T17:25:41.664Z,0.70
2023-02-14T17:28:12.029Z,0.88
2023-02-14T17:30:42.032Z,1.00
2023-02-14T17:33:12.079Z,0.90
2023-02-14T17:35:42.167Z,0.70
2023-02-14T17:38:12.326Z,0.60
2023-02-14T17:40:42.474Z,0.90
2023-02-14T17:43:12.507Z,0.80
2023-02-14T17:45:42.591Z,1.38
2023-02-14T17:48:12.434Z,1.45
2023-02-14T17:50:42.280Z,0.80
2023-02-14T17:53:13.644Z,0.95
2023-02-14T17:55:43.657Z,0.60
2023-02-14T17:58:13.565Z,0.82
2023-02-14T18:00:44.441Z,0.82
2023-02-14T18:03:14.994Z,2.00
2023-02-14T18:05:45.038Z,2.47
2023-02-14T18:08:15.021Z,1.23
2023-02-14T18:10:47.060Z,1.15
2023-02-14T18:13:17.149Z,1.25
2023-02-14T18:15:47.301Z,0.70
2023-02-14T18:18:18.088Z,0.82
2023-02-14T18:21:09.250Z,1.30
2023-02-14T18:23:40.101Z,1.02
2023-02-14T18:26:14.824Z,1.27
2023-02-14T18:28:45.152Z,1.27
2023-02-14T18:31:19.192Z,1.42
2023-02-14T18:33:51.326Z,1.30
2023-02-14T18:36:25.416Z,1.00
2023-02-14T18:38:58.948Z,0.50
2023-02-14T18:41:30.738Z,0.60
2023-02-14T18:44:01.560Z,0.65
2023-02-14T18:46:34.964Z,0.90
2023-02-14T18:49:08.164Z,0.70
2023-02-14T18:51:40.700Z,0.70
2023-02-14T18:54:10.978Z,0.68
2023-02-14T18:56:41.628Z,0.80
2023-02-14T18:59:14.452Z,0.75
2023-02-14T19:01:47.292Z,0.95
2023-02-14T19:04:18.994Z,0.85
2023-02-14T19:06:50.524Z,0.93
2023-02-14T19:09:20.688Z,0.73
2023-02-14T19:11:50.831Z,0.70
2023-02-14T19:16:53.315Z,0.52
2023-02-14T19:19:24.438Z,0.50
2023-02-14T19:21:54.640Z,0.70
2023-02-14T19:24:26.759Z,0.50
2023-02-14T19:26:58.110Z,0.70
2023-02-14T19:29:28.287Z,0.70
2023-02-14T19:31:58.933Z,0.95
2023-02-14T19:34:30.729Z,1.00
2023-02-14T19:37:03.456Z,1.00
2023-02-14T19:39:33.764Z,0.50
2023-02-14T19:42:05.193Z,0.90
2023-02-14T19:44:35.373Z,0.38
2023-02-14T19:47:19.270Z,0.50
2023-02-14T19:49:55.548Z,0.50
2023-02-14T19:52:26.931Z,0.55
2023-02-14T19:54:58.345Z,0.40
2023-02-14T19:57:28.425Z,0.60
2023-02-14T19:59:58.593Z,0.40
2023-02-14T20:02:28.863Z,0.30
2023-02-14T20:05:05.440Z,0.60
2023-02-14T20:07:35.591Z,0.90
2023-02-14T20:10:05.706Z,0.77
2023-02-14T20:15:07.587Z,1.00
2023-02-14T20:17:38.798Z,0.80
2023-02-14T20:20:14.453Z,0.40
2023-02-14T20:22:44.573Z,0.40
2023-02-14T20:25:14.645Z,0.40
2023-02-14T20:27:44.471Z,0.40
2023-02-14T20:30:15.605Z,0.50
2023-02-14T20:32:45.841Z,0.70
2023-02-14T20:37:44.911Z,0.50
2023-02-14T20:40:15.082Z,0.73
2023-02-14T20:42:45.055Z,0.60
2023-02-14T20:47:44.364Z,0.50
2023-02-14T20:50:14.561Z,0.30
2023-02-14T20:52:44.643Z,0.50
2023-02-14T20:55:14.450Z,0.73
2023-02-14T20:57:44.564Z,0.43
2023-02-14T21:00:15.354Z,0.52
2023-02-14T21:02:45.458Z,0.60
2023-02-14T21:07:50.238Z,0.68
2023-02-14T21:10:20.373Z,0.60
2023-02-14T21:12:51.272Z,1.00
2023-02-14T21:15:21.966Z,0.65
2023-02-14T21:17:51.989Z,0.88
2023-02-14T21:22:51.427Z,0.60
2023-02-14T21:27:54.249Z,0.70
2023-02-14T21:30:24.318Z,0.75
2023-02-14T21:35:23.894Z,0.90
2023-02-14T21:40:24.659Z,0.82
2023-02-14T21:42:54.892Z,1.10
2023-02-14T21:45:43.072Z,0.80
2023-02-14T21:48:31.414Z,0.73
2023-02-14T21:51:02.478Z,0.57
2023-02-14T21:53:34.706Z,0.60
2023-02-14T21:56:11.485Z,0.47
2023-02-14T21:58:42.358Z,0.50
2023-02-14T22:01:24.119Z,0.70
2023-02-14T22:03:54.681Z,0.70
2023-02-14T22:06:25.522Z,0.60
2023-02-14T22:08:57.637Z,0.50
2023-02-14T22:11:30.100Z,0.57
2023-02-14T22:14:01.415Z,0.80
2023-02-14T22:16:31.658Z,0.65
2023-02-14T22:19:01.843Z,0.60
2023-02-14T22:21:34.593Z,0.55
2023-02-14T22:24:04.996Z,0.70
2023-02-14T22:26:40.036Z,0.77
2023-02-14T22:29:12.662Z,1.00
2023-02-14T22:31:45.128Z,1.00
2023-02-14T22:34:18.911Z,0.68
2023-02-14T22:36:49.880Z,0.90
2023-02-14T22:39:20.098Z,0.90
2023-02-14T22:41:50.160Z,1.02
2023-02-14T22:46:49.482Z,0.80
2023-02-14T22:49:20.228Z,0.93
2023-02-14T22:51:50.090Z,1.00
2023-02-14T22:56:51.444Z,0.82
2023-02-14T22:59:24.927Z,1.33
2023-02-14T23:01:55.659Z,1.30
2023-02-14T23:04:26.466Z,1.35
2023-02-14T23:06:57.242Z,1.88
2023-02-14T23:09:27.359Z,1.73
2023-02-14T23:14:44.988Z,1.48
2023-02-14T23:17:17.475Z,1.55
2023-02-14T23:20:07.006Z,1.17
2023-02-14T23:22:39.830Z,1.73
2023-02-14T23:25:13.986Z,1.17
2023-02-14T23:27:46.810Z,1.25
2023-02-14T23:30:19.639Z,1.40
2023-02-14T23:32:49.902Z,1.50
2023-02-14T23:35:19.977Z,1.20
2023-02-14T23:40:19.540Z,1.27
2023-02-14T23:42:50.467Z,0.90
2023-02-14T23:50:36.990Z,1.20
2023-02-14T23:55:36.273Z,1.00
